Sti Virtus — V7AY4 — position and weather

sailwx.info

Track history (hours):
 
Tides and Currents Weather Stations Pressure Air Temp Water Temp Dewpoint Dewpoint Depression Visibility Wind Speed Wind Dir Waves Ship Positions

Sti Virtus

Last reported at 2017-Nov-06 02:27 UTC. Time now 2017-Nov-23 03:29 UTC.
Position S 26°57' E 153°13'.
Warning: this ship's position is 17 days out of date.

Length 183 m; draft 10 m.

Type: Tanker. MMSI: 538005171.

Date/timePositionNaut miles runAvg speedWind from/ knotsBaromVisibWave heightAir tempDewpointWater temp
2017-Nov-06 02:27S 26°57' E 153°13'613.1
2017-Nov-06 02:00S 27°02' E 153°15'611.9
2017-Nov-06 01:31S 27°07' E 153°20'611.4
2017-Nov-06 01:01S 27°12' E 153°20'611.5
2017-Nov-06 00:31S 27°16' E 153°16'611.4
2017-Nov-06 00:00S 27°20' E 153°11'4 8.1
2017-Nov-05 23:31S 27°24' E 153°09'1 0.1
2017-Nov-05 18:57S 27°24' E 153°09'0 0.0
2017-Nov-05 18:21S 27°24' E 153°09'0 0.0
2017-Nov-05 17:54S 27°24' E 153°09'0 0.0
2017-Nov-05 17:30S 27°24' E 153°09'0 0.0
2017-Nov-05 16:57S 27°24' E 153°09'0 0.0
2017-Nov-05 15:27S 27°24' E 153°09'0 0.0
2017-Nov-05 14:39S 27°24' E 153°09'0 0.0
2017-Nov-05 13:06S 27°24' E 153°09'0 0.0
2017-Nov-05 12:54S 27°24' E 153°09'0 0.0
2017-Nov-05 12:30S 27°24' E 153°09'0 0.0
2017-Nov-05 11:54S 27°24' E 153°09'0 0.0
2017-Nov-05 11:06S 27°24' E 153°09'0 0.0
2017-Nov-05 10:54S 27°24' E 153°09'0 0.0
2017-Nov-05 10:30S 27°24' E 153°09'0 0.0
2017-Nov-05 09:54S 27°24' E 153°09'0 0.0
2017-Nov-05 09:18S 27°24' E 153°09'0 0.0
2017-Nov-05 09:00S 27°24' E 153°09'0 0.0
2017-Nov-04 18:36S 27°24' E 153°09'0 0.0
2017-Nov-04 15:00S 27°24' E 153°09'0 0.0
2017-Nov-04 14:18S 27°24' E 153°09'0 0.0
2017-Nov-04 13:54S 27°24' E 153°09'0 0.0
2017-Nov-04 13:30S 27°24' E 153°09'0 0.0
2017-Nov-04 13:00S 27°24' E 153°09'0 0.0
2017-Nov-04 12:24S 27°24' E 153°09'0 0.0
2017-Nov-04 11:57S 27°24' E 153°09'0 0.0
2017-Nov-04 11:27S 27°24' E 153°09'0 0.0
2017-Nov-04 11:00S 27°24' E 153°09'1 1.7
2017-Nov-04 10:30S 27°25' E 153°09'1 2.1
2017-Nov-04 10:00S 27°26' E 153°08'3 5.7
2017-Nov-04 09:30S 27°23' E 153°09'5 9.2
2017-Nov-04 09:00S 27°19' E 153°12'5 9.9
2017-Nov-04 08:30S 27°16' E 153°16'510.1
2017-Nov-04 08:00S 27°13' E 153°20'612.9
2017-Nov-04 07:30S 27°06' E 153°19'611.7
2017-Nov-04 07:00S 27°02' E 153°15'612.7
2017-Nov-04 06:30S 26°56' E 153°12'611.8
2017-Nov-04 06:00S 26°51' E 153°09'610.3
2017-Nov-04 05:26S 26°45' E 153°11'4 8.7
2017-Nov-04 04:59S 26°41' E 153°11'  
Track history (hours):
 
Tides and Currents Weather Stations Pressure Air Temp Water Temp Dewpoint Dewpoint Depression Visibility Wind Speed Wind Dir Waves Ship Positions

Sti Virtus

Last reported at 2017-Nov-06 02:27 UTC. Time now 2017-Nov-23 03:29 UTC.
Position S 26°57' E 153°13'.
Warning: this ship's position is 17 days out of date.

Length 183 m; draft 10 m.

Type: Tanker. MMSI: 538005171.

Date/timePositionNaut miles runAvg speedWind from/ knotsBaromVisibWave heightAir tempDewpointWater temp
2017-Nov-06 02:27S 26°57' E 153°13'613.1
2017-Nov-06 02:00S 27°02' E 153°15'611.9
2017-Nov-06 01:31S 27°07' E 153°20'611.4
2017-Nov-06 01:01S 27°12' E 153°20'611.5
2017-Nov-06 00:31S 27°16' E 153°16'611.4
2017-Nov-06 00:00S 27°20' E 153°11'4 8.1
2017-Nov-05 23:31S 27°24' E 153°09'1 0.1
2017-Nov-05 18:57S 27°24' E 153°09'0 0.0
2017-Nov-05 18:21S 27°24' E 153°09'0 0.0
2017-Nov-05 17:54S 27°24' E 153°09'0 0.0
2017-Nov-05 17:30S 27°24' E 153°09'0 0.0
2017-Nov-05 16:57S 27°24' E 153°09'0 0.0
2017-Nov-05 15:27S 27°24' E 153°09'0 0.0
2017-Nov-05 14:39S 27°24' E 153°09'0 0.0
2017-Nov-05 13:06S 27°24' E 153°09'0 0.0
2017-Nov-05 12:54S 27°24' E 153°09'0 0.0
2017-Nov-05 12:30S 27°24' E 153°09'0 0.0
2017-Nov-05 11:54S 27°24' E 153°09'0 0.0
2017-Nov-05 11:06S 27°24' E 153°09'0 0.0
2017-Nov-05 10:54S 27°24' E 153°09'0 0.0
2017-Nov-05 10:30S 27°24' E 153°09'0 0.0
2017-Nov-05 09:54S 27°24' E 153°09'0 0.0
2017-Nov-05 09:18S 27°24' E 153°09'0 0.0
2017-Nov-05 09:00S 27°24' E 153°09'0 0.0
2017-Nov-04 18:36S 27°24' E 153°09'0 0.0
2017-Nov-04 15:00S 27°24' E 153°09'0 0.0
2017-Nov-04 14:18S 27°24' E 153°09'0 0.0
2017-Nov-04 13:54S 27°24' E 153°09'0 0.0
2017-Nov-04 13:30S 27°24' E 153°09'0 0.0
2017-Nov-04 13:00S 27°24' E 153°09'0 0.0
2017-Nov-04 12:24S 27°24' E 153°09'0 0.0
2017-Nov-04 11:57S 27°24' E 153°09'0 0.0
2017-Nov-04 11:27S 27°24' E 153°09'0 0.0
2017-Nov-04 11:00S 27°24' E 153°09'1 1.7
2017-Nov-04 10:30S 27°25' E 153°09'1 2.1
2017-Nov-04 10:00S 27°26' E 153°08'3 5.7
2017-Nov-04 09:30S 27°23' E 153°09'5 9.2
2017-Nov-04 09:00S 27°19' E 153°12'5 9.9
2017-Nov-04 08:30S 27°16' E 153°16'510.1
2017-Nov-04 08:00S 27°13' E 153°20'612.9
2017-Nov-04 07:30S 27°06' E 153°19'611.7
2017-Nov-04 07:00S 27°02' E 153°15'612.7
2017-Nov-04 06:30S 26°56' E 153°12'611.8
2017-Nov-04 06:00S 26°51' E 153°09'610.3
2017-Nov-04 05:26S 26°45' E 153°11'4 8.7
2017-Nov-04 04:59S 26°41' E 153°11'  

Dump ship's entire track history